sensor_id;sensor_type;location;lat;lon;timestamp;temperature;humidity
10263;DHT22;5177;50.068;8.156;2023-04-24T00:00:33;11.80;99.90
10263;DHT22;5177;50.068;8.156;2023-04-24T00:02:59;11.70;99.90
10263;DHT22;5177;50.068;8.156;2023-04-24T00:05:25;11.60;99.90
10263;DHT22;5177;50.068;8.156;2023-04-24T00:07:50;11.70;99.90
10263;DHT22;5177;50.068;8.156;2023-04-24T00:10:19;11.70;99.90
10263;DHT22;5177;50.068;8.156;2023-04-24T00:12:45;11.70;99.90
10263;DHT22;5177;50.068;8.156;2023-04-24T00:15:10;11.70;99.90
10263;DHT22;5177;50.068;8.156;2023-04-24T00:17:36;11.70;99.90
10263;DHT22;5177;50.068;8.156;2023-04-24T00:20:02;11.60;99.90
10263;DHT22;5177;50.068;8.156;2023-04-24T00:22:29;11.60;99.90
10263;DHT22;5177;50.068;8.156;2023-04-24T00:24:55;11.70;99.90
10263;DHT22;5177;50.068;8.156;2023-04-24T00:27:21;11.60;99.90
10263;DHT22;5177;50.068;8.156;2023-04-24T00:29:46;11.60;99.90
10263;DHT22;5177;50.068;8.156;2023-04-24T00:32:12;11.70;99.90
10263;DHT22;5177;50.068;8.156;2023-04-24T00:34:38;11.70;99.90
10263;DHT22;5177;50.068;8.156;2023-04-24T00:37:03;11.70;99.90
10263;DHT22;5177;50.068;8.156;2023-04-24T00:39:29;11.60;99.90
10263;DHT22;5177;50.068;8.156;2023-04-24T00:41:55;11.70;99.90
10263;DHT22;5177;50.068;8.156;2023-04-24T00:44:22;11.70;99.90
10263;DHT22;5177;50.068;8.156;2023-04-24T00:46:47;11.60;99.90
10263;DHT22;5177;50.068;8.156;2023-04-24T00:49:23;11.60;99.90
10263;DHT22;5177;50.068;8.156;2023-04-24T00:51:48;11.50;99.90
10263;DHT22;5177;50.068;8.156;2023-04-24T00:54:14;11.60;99.90
10263;DHT22;5177;50.068;8.156;2023-04-24T00:56:40;11.50;99.90
10263;DHT22;5177;50.068;8.156;2023-04-24T00:59:06;11.50;99.90
10263;DHT22;5177;50.068;8.156;2023-04-24T01:01:32;11.50;99.90
10263;DHT22;5177;50.068;8.156;2023-04-24T01:03:58;11.50;99.90
10263;DHT22;5177;50.068;8.156;2023-04-24T01:06:24;11.40;99.90
10263;DHT22;5177;50.068;8.156;2023-04-24T01:11:40;11.40;99.90
10263;DHT22;5177;50.068;8.156;2023-04-24T01:14:06;11.40;99.90
10263;DHT22;5177;50.068;8.156;2023-04-24T01:16:32;11.40;99.90
10263;DHT22;5177;50.068;8.156;2023-04-24T01:18:58;11.40;99.90
10263;DHT22;5177;50.068;8.156;2023-04-24T01:21:24;11.40;99.90
10263;DHT22;5177;50.068;8.156;2023-04-24T01:23:52;11.50;99.90
10263;DHT22;5177;50.068;8.156;2023-04-24T01:26:18;11.30;99.90
10263;DHT22;5177;50.068;8.156;2023-04-24T01:28:45;11.30;99.90
10263;DHT22;5177;50.068;8.156;2023-04-24T01:31:11;11.40;99.90
10263;DHT22;5177;50.068;8.156;2023-04-24T01:33:36;11.50;99.90
10263;DHT22;5177;50.068;8.156;2023-04-24T01:36:02;11.40;99.90
10263;DHT22;5177;50.068;8.156;2023-04-24T01:41:31;11.40;99.90
10263;DHT22;5177;50.068;8.156;2023-04-24T01:43:57;11.40;99.90
10263;DHT22;5177;50.068;8.156;2023-04-24T01:46:23;11.60;99.90
10263;DHT22;5177;50.068;8.156;2023-04-24T01:48:49;11.40;99.90
10263;DHT22;5177;50.068;8.156;2023-04-24T01:51:15;11.40;99.90
10263;DHT22;5177;50.068;8.156;2023-04-24T01:53:40;11.50;99.90
10263;DHT22;5177;50.068;8.156;2023-04-24T01:56:06;11.50;99.90
10263;DHT22;5177;50.068;8.156;2023-04-24T01:58:31;11.50;99.90
10263;DHT22;5177;50.068;8.156;2023-04-24T02:00:57;11.60;99.90
10263;DHT22;5177;50.068;8.156;2023-04-24T02:03:24;11.50;99.90
10263;DHT22;5177;50.068;8.156;2023-04-24T02:05:50;11.60;99.90
10263;DHT22;5177;50.068;8.156;2023-04-24T02:08:15;11.60;99.90
10263;DHT22;5177;50.068;8.156;2023-04-24T02:10:41;11.70;99.90
10263;DHT22;5177;50.068;8.156;2023-04-24T02:13:06;11.70;99.90
10263;DHT22;5177;50.068;8.156;2023-04-24T02:15:32;11.70;99.90
10263;DHT22;5177;50.068;8.156;2023-04-24T02:17:57;11.70;99.90
10263;DHT22;5177;50.068;8.156;2023-04-24T02:20:23;11.80;99.90
10263;DHT22;5177;50.068;8.156;2023-04-24T02:22:48;11.80;99.90
10263;DHT22;5177;50.068;8.156;2023-04-24T02:25:14;11.80;99.90
10263;DHT22;5177;50.068;8.156;2023-04-24T02:27:41;11.70;99.90
10263;DHT22;5177;50.068;8.156;2023-04-24T02:30:07;11.70;99.90
10263;DHT22;5177;50.068;8.156;2023-04-24T02:32:33;11.70;99.90
10263;DHT22;5177;50.068;8.156;2023-04-24T02:34:59;11.60;99.90
10263;DHT22;5177;50.068;8.156;2023-04-24T02:37:24;11.70;99.90
10263;DHT22;5177;50.068;8.156;2023-04-24T02:39:50;11.60;99.90
10263;DHT22;5177;50.068;8.156;2023-04-24T02:42:15;11.60;99.90
10263;DHT22;5177;50.068;8.156;2023-04-24T02:44:41;11.60;99.90
10263;DHT22;5177;50.068;8.156;2023-04-24T02:47:06;11.60;99.90
10263;DHT22;5177;50.068;8.156;2023-04-24T02:49:32;11.60;99.90
10263;DHT22;5177;50.068;8.156;2023-04-24T02:51:58;11.60;99.90
10263;DHT22;5177;50.068;8.156;2023-04-24T02:54:23;11.60;99.90
10263;DHT22;5177;50.068;8.156;2023-04-24T02:56:49;11.60;99.90
10263;DHT22;5177;50.068;8.156;2023-04-24T02:59:15;11.50;99.90
10263;DHT22;5177;50.068;8.156;2023-04-24T03:01:41;11.60;99.90
10263;DHT22;5177;50.068;8.156;2023-04-24T03:04:06;11.50;99.90
10263;DHT22;5177;50.068;8.156;2023-04-24T03:06:32;11.50;99.90
10263;DHT22;5177;50.068;8.156;2023-04-24T03:08:58;11.50;99.90
10263;DHT22;5177;50.068;8.156;2023-04-24T03:11:23;11.50;99.90
10263;DHT22;5177;50.068;8.156;2023-04-24T03:13:49;11.50;99.90
10263;DHT22;5177;50.068;8.156;2023-04-24T03:16:14;11.60;99.90
10263;DHT22;5177;50.068;8.156;2023-04-24T03:18:40;11.60;99.90
10263;DHT22;5177;50.068;8.156;2023-04-24T03:21:05;11.60;99.90
10263;DHT22;5177;50.068;8.156;2023-04-24T03:23:31;11.60;99.90
10263;DHT22;5177;50.068;8.156;2023-04-24T03:25:56;11.60;99.90
10263;DHT22;5177;50.068;8.156;2023-04-24T03:28:22;11.60;99.90
10263;DHT22;5177;50.068;8.156;2023-04-24T03:30:47;11.60;99.90
10263;DHT22;5177;50.068;8.156;2023-04-24T03:33:13;11.60;99.90
10263;DHT22;5177;50.068;8.156;2023-04-24T03:35:38;11.50;99.90
10263;DHT22;5177;50.068;8.156;2023-04-24T03:38:04;11.50;99.90
10263;DHT22;5177;50.068;8.156;2023-04-24T03:40:30;11.60;99.90
10263;DHT22;5177;50.068;8.156;2023-04-24T03:42:55;11.60;99.90
10263;DHT22;5177;50.068;8.156;2023-04-24T03:45:21;11.60;99.90
10263;DHT22;5177;50.068;8.156;2023-04-24T03:47:46;11.60;99.90
10263;DHT22;5177;50.068;8.156;2023-04-24T03:50:12;11.60;99.90
10263;DHT22;5177;50.068;8.156;2023-04-24T03:52:37;11.60;99.90
10263;DHT22;5177;50.068;8.156;2023-04-24T03:55:03;11.60;99.90
10263;DHT22;5177;50.068;8.156;2023-04-24T03:57:28;11.50;99.90
10263;DHT22;5177;50.068;8.156;2023-04-24T03:59:54;11.50;99.90
10263;DHT22;5177;50.068;8.156;2023-04-24T04:02:19;11.50;99.90
10263;DHT22;5177;50.068;8.156;2023-04-24T04:04:45;11.40;99.90
10263;DHT22;5177;50.068;8.156;2023-04-24T04:07:10;11.40;99.90
10263;DHT22;5177;50.068;8.156;2023-04-24T04:09:36;11.30;99.90
10263;DHT22;5177;50.068;8.156;2023-04-24T04:12:02;11.30;99.90
10263;DHT22;5177;50.068;8.156;2023-04-24T04:14:28;11.30;99.90
10263;DHT22;5177;50.068;8.156;2023-04-24T04:16:53;11.30;99.90
10263;DHT22;5177;50.068;8.156;2023-04-24T04:19:19;11.20;99.90
10263;DHT22;5177;50.068;8.156;2023-04-24T04:21:44;11.30;99.90
10263;DHT22;5177;50.068;8.156;2023-04-24T04:24:11;11.30;99.90
10263;DHT22;5177;50.068;8.156;2023-04-24T04:26:37;11.20;99.90
10263;DHT22;5177;50.068;8.156;2023-04-24T04:29:03;11.20;99.90
10263;DHT22;5177;50.068;8.156;2023-04-24T04:31:28;11.20;99.90
10263;DHT22;5177;50.068;8.156;2023-04-24T04:33:54;11.00;99.90
10263;DHT22;5177;50.068;8.156;2023-04-24T04:36:20;10.90;99.90
10263;DHT22;5177;50.068;8.156;2023-04-24T04:38:45;10.80;99.90
10263;DHT22;5177;50.068;8.156;2023-04-24T04:41:11;10.70;99.90
10263;DHT22;5177;50.068;8.156;2023-04-24T04:43:37;10.70;99.90
10263;DHT22;5177;50.068;8.156;2023-04-24T04:46:04;10.60;99.90
10263;DHT22;5177;50.068;8.156;2023-04-24T04:48:30;10.60;99.90
10263;DHT22;5177;50.068;8.156;2023-04-24T04:50:56;10.50;99.90
10263;DHT22;5177;50.068;8.156;2023-04-24T04:53:22;10.40;99.90
10263;DHT22;5177;50.068;8.156;2023-04-24T04:55:48;10.50;99.90
10263;DHT22;5177;50.068;8.156;2023-04-24T04:58:13;10.50;99.90
10263;DHT22;5177;50.068;8.156;2023-04-24T05:00:39;10.30;99.90
10263;DHT22;5177;50.068;8.156;2023-04-24T05:03:04;10.30;99.90
10263;DHT22;5177;50.068;8.156;2023-04-24T05:05:30;10.30;99.90
10263;DHT22;5177;50.068;8.156;2023-04-24T05:07:56;10.20;99.90
10263;DHT22;5177;50.068;8.156;2023-04-24T05:10:21;10.10;99.90
10263;DHT22;5177;50.068;8.156;2023-04-24T05:12:47;10.10;99.90
10263;DHT22;5177;50.068;8.156;2023-04-24T05:15:12;10.10;99.90
10263;DHT22;5177;50.068;8.156;2023-04-24T05:17:37;10.10;99.90
10263;DHT22;5177;50.068;8.156;2023-04-24T05:20:05;9.90;99.90
10263;DHT22;5177;50.068;8.156;2023-04-24T05:22:31;10.00;99.90
10263;DHT22;5177;50.068;8.156;2023-04-24T05:24:57;10.00;99.90
10263;DHT22;5177;50.068;8.156;2023-04-24T05:27:22;10.00;99.90
10263;DHT22;5177;50.068;8.156;2023-04-24T05:29:48;10.20;99.90
10263;DHT22;5177;50.068;8.156;2023-04-24T05:32:14;10.00;99.90
10263;DHT22;5177;50.068;8.156;2023-04-24T05:34:39;10.10;99.90
10263;DHT22;5177;50.068;8.156;2023-04-24T05:37:05;10.00;99.90
10263;DHT22;5177;50.068;8.156;2023-04-24T05:39:33;10.20;99.90
10263;DHT22;5177;50.068;8.156;2023-04-24T05:41:59;10.20;99.90
10263;DHT22;5177;50.068;8.156;2023-04-24T05:44:26;10.30;99.90
10263;DHT22;5177;50.068;8.156;2023-04-24T05:46:52;10.20;99.90
10263;DHT22;5177;50.068;8.156;2023-04-24T05:49:17;10.40;99.90
10263;DHT22;5177;50.068;8.156;2023-04-24T05:51:43;10.30;99.90
10263;DHT22;5177;50.068;8.156;2023-04-24T05:54:08;10.40;99.90
10263;DHT22;5177;50.068;8.156;2023-04-24T05:56:34;10.40;99.90
10263;DHT22;5177;50.068;8.156;2023-04-24T05:58:59;10.50;99.90
10263;DHT22;5177;50.068;8.156;2023-04-24T06:01:25;10.40;99.90
10263;DHT22;5177;50.068;8.156;2023-04-24T06:03:50;10.60;99.90
10263;DHT22;5177;50.068;8.156;2023-04-24T06:06:16;10.70;99.90
10263;DHT22;5177;50.068;8.156;2023-04-24T06:08:41;10.60;99.90
10263;DHT22;5177;50.068;8.156;2023-04-24T06:11:09;10.70;99.90
10263;DHT22;5177;50.068;8.156;2023-04-24T06:13:35;10.80;99.90
10263;DHT22;5177;50.068;8.156;2023-04-24T06:16:00;10.80;99.90
10263;DHT22;5177;50.068;8.156;2023-04-24T06:18:26;10.80;99.90
10263;DHT22;5177;50.068;8.156;2023-04-24T06:20:51;10.70;99.90
10263;DHT22;5177;50.068;8.156;2023-04-24T06:23:17;10.80;99.90
10263;DHT22;5177;50.068;8.156;2023-04-24T06:25:42;10.90;99.90
10263;DHT22;5177;50.068;8.156;2023-04-24T06:28:08;10.90;99.90
10263;DHT22;5177;50.068;8.156;2023-04-24T06:30:33;11.10;99.90
10263;DHT22;5177;50.068;8.156;2023-04-24T06:32:59;11.20;99.90
10263;DHT22;5177;50.068;8.156;2023-04-24T06:35:24;11.30;99.90
10263;DHT22;5177;50.068;8.156;2023-04-24T06:37:50;11.40;99.90
10263;DHT22;5177;50.068;8.156;2023-04-24T06:40:16;11.40;99.90
10263;DHT22;5177;50.068;8.156;2023-04-24T06:42:43;11.50;99.90
10263;DHT22;5177;50.068;8.156;2023-04-24T06:45:09;11.60;99.90
10263;DHT22;5177;50.068;8.156;2023-04-24T06:47:35;11.60;99.90
10263;DHT22;5177;50.068;8.156;2023-04-24T06:50:00;11.60;99.90
10263;DHT22;5177;50.068;8.156;2023-04-24T06:52:26;11.50;99.90
10263;DHT22;5177;50.068;8.156;2023-04-24T06:54:52;11.60;99.90
10263;DHT22;5177;50.068;8.156;2023-04-24T06:57:17;11.60;99.90
10263;DHT22;5177;50.068;8.156;2023-04-24T06:59:43;11.60;99.90
10263;DHT22;5177;50.068;8.156;2023-04-24T07:02:08;11.60;99.90
10263;DHT22;5177;50.068;8.156;2023-04-24T07:04:34;11.60;99.90
10263;DHT22;5177;50.068;8.156;2023-04-24T07:07:00;11.60;99.90
10263;DHT22;5177;50.068;8.156;2023-04-24T07:09:26;11.60;99.90
10263;DHT22;5177;50.068;8.156;2023-04-24T07:11:52;11.60;99.90
10263;DHT22;5177;50.068;8.156;2023-04-24T07:14:18;11.30;99.90
10263;DHT22;5177;50.068;8.156;2023-04-24T07:16:43;11.40;99.90
10263;DHT22;5177;50.068;8.156;2023-04-24T07:19:09;11.40;99.90
10263;DHT22;5177;50.068;8.156;2023-04-24T07:21:34;11.40;99.90
10263;DHT22;5177;50.068;8.156;2023-04-24T07:24:00;11.50;99.90
10263;DHT22;5177;50.068;8.156;2023-04-24T07:26:27;11.50;99.90
10263;DHT22;5177;50.068;8.156;2023-04-24T07:28:53;11.30;99.90
10263;DHT22;5177;50.068;8.156;2023-04-24T07:31:19;11.50;99.90
10263;DHT22;5177;50.068;8.156;2023-04-24T07:33:44;11.50;99.90
10263;DHT22;5177;50.068;8.156;2023-04-24T07:36:11;11.80;99.90
10263;DHT22;5177;50.068;8.156;2023-04-24T07:38:42;11.90;99.90
10263;DHT22;5177;50.068;8.156;2023-04-24T07:41:08;12.00;99.90
10263;DHT22;5177;50.068;8.156;2023-04-24T07:43:34;12.20;99.90
10263;DHT22;5177;50.068;8.156;2023-04-24T07:45:59;12.10;99.90
10263;DHT22;5177;50.068;8.156;2023-04-24T07:48:25;12.10;99.90
10263;DHT22;5177;50.068;8.156;2023-04-24T07:50:51;12.30;99.90
10263;DHT22;5177;50.068;8.156;2023-04-24T07:53:18;12.30;99.90
10263;DHT22;5177;50.068;8.156;2023-04-24T07:55:43;12.30;99.90
10263;DHT22;5177;50.068;8.156;2023-04-24T07:58:09;12.30;99.90
10263;DHT22;5177;50.068;8.156;2023-04-24T08:00:34;12.40;99.90
10263;DHT22;5177;50.068;8.156;2023-04-24T08:03:00;12.50;99.90
10263;DHT22;5177;50.068;8.156;2023-04-24T08:05:26;12.50;99.90
10263;DHT22;5177;50.068;8.156;2023-04-24T08:07:52;12.60;99.90
10263;DHT22;5177;50.068;8.156;2023-04-24T08:10:18;12.60;99.90
10263;DHT22;5177;50.068;8.156;2023-04-24T08:12:43;12.70;99.90
10263;DHT22;5177;50.068;8.156;2023-04-24T08:15:09;12.80;99.90
10263;DHT22;5177;50.068;8.156;2023-04-24T08:17:35;12.80;99.90
10263;DHT22;5177;50.068;8.156;2023-04-24T08:20:01;12.90;99.90
10263;DHT22;5177;50.068;8.156;2023-04-24T08:22:27;13.00;99.90
10263;DHT22;5177;50.068;8.156;2023-04-24T08:24:53;12.90;99.90
10263;DHT22;5177;50.068;8.156;2023-04-24T08:27:18;12.70;99.90
10263;DHT22;5177;50.068;8.156;2023-04-24T08:29:44;12.70;99.90
10263;DHT22;5177;50.068;8.156;2023-04-24T08:32:09;12.40;99.90
10263;DHT22;5177;50.068;8.156;2023-04-24T08:34:35;12.40;99.90
10263;DHT22;5177;50.068;8.156;2023-04-24T08:37:00;12.20;99.90
10263;DHT22;5177;50.068;8.156;2023-04-24T08:39:26;12.00;99.90
10263;DHT22;5177;50.068;8.156;2023-04-24T08:41:52;11.90;99.90
10263;DHT22;5177;50.068;8.156;2023-04-24T08:44:18;11.90;99.90
10263;DHT22;5177;50.068;8.156;2023-04-24T08:46:44;11.90;99.90
10263;DHT22;5177;50.068;8.156;2023-04-24T08:49:13;11.90;99.90
10263;DHT22;5177;50.068;8.156;2023-04-24T08:51:41;11.90;99.90
10263;DHT22;5177;50.068;8.156;2023-04-24T08:54:07;12.00;99.90
10263;DHT22;5177;50.068;8.156;2023-04-24T08:56:33;12.00;99.90
10263;DHT22;5177;50.068;8.156;2023-04-24T08:58:59;12.40;99.90
10263;DHT22;5177;50.068;8.156;2023-04-24T09:01:24;12.30;99.90
10263;DHT22;5177;50.068;8.156;2023-04-24T09:03:50;12.40;99.90
10263;DHT22;5177;50.068;8.156;2023-04-24T09:06:17;12.30;99.90
10263;DHT22;5177;50.068;8.156;2023-04-24T09:08:43;12.40;99.90
10263;DHT22;5177;50.068;8.156;2023-04-24T09:11:10;12.20;99.90
10263;DHT22;5177;50.068;8.156;2023-04-24T09:13:36;12.20;99.90
10263;DHT22;5177;50.068;8.156;2023-04-24T09:16:02;12.20;99.90
10263;DHT22;5177;50.068;8.156;2023-04-24T09:18:28;12.10;99.90
10263;DHT22;5177;50.068;8.156;2023-04-24T09:21:11;12.10;99.90
10263;DHT22;5177;50.068;8.156;2023-04-24T09:23:37;12.10;99.90
10263;DHT22;5177;50.068;8.156;2023-04-24T09:26:03;12.20;99.90
10263;DHT22;5177;50.068;8.156;2023-04-24T09:28:34;12.10;99.90
10263;DHT22;5177;50.068;8.156;2023-04-24T09:31:04;12.10;99.90
10263;DHT22;5177;50.068;8.156;2023-04-24T09:33:29;12.20;99.90
10263;DHT22;5177;50.068;8.156;2023-04-24T09:35:55;12.30;99.90
10263;DHT22;5177;50.068;8.156;2023-04-24T09:38:39;12.20;99.90
10263;DHT22;5177;50.068;8.156;2023-04-24T09:41:06;12.30;99.90
10263;DHT22;5177;50.068;8.156;2023-04-24T09:43:31;12.40;99.90
10263;DHT22;5177;50.068;8.156;2023-04-24T09:45:57;12.50;99.90
10263;DHT22;5177;50.068;8.156;2023-04-24T09:48:34;12.50;99.90
10263;DHT22;5177;50.068;8.156;2023-04-24T09:51:00;12.60;99.90
10263;DHT22;5177;50.068;8.156;2023-04-24T09:53:27;12.50;99.90
10263;DHT22;5177;50.068;8.156;2023-04-24T09:55:53;12.40;99.90
10263;DHT22;5177;50.068;8.156;2023-04-24T09:58:24;12.30;99.90
10263;DHT22;5177;50.068;8.156;2023-04-24T10:00:49;12.20;99.90
10263;DHT22;5177;50.068;8.156;2023-04-24T10:03:18;12.10;99.90
10263;DHT22;5177;50.068;8.156;2023-04-24T10:05:44;12.00;99.90
10263;DHT22;5177;50.068;8.156;2023-04-24T10:08:11;12.00;99.90
10263;DHT22;5177;50.068;8.156;2023-04-24T10:10:41;12.10;99.90
10263;DHT22;5177;50.068;8.156;2023-04-24T10:13:07;12.00;99.90
10263;DHT22;5177;50.068;8.156;2023-04-24T10:15:34;12.00;99.90
10263;DHT22;5177;50.068;8.156;2023-04-24T10:18:00;11.90;99.90
10263;DHT22;5177;50.068;8.156;2023-04-24T10:20:27;11.90;99.90
10263;DHT22;5177;50.068;8.156;2023-04-24T10:22:54;11.80;99.90
10263;DHT22;5177;50.068;8.156;2023-04-24T10:25:20;11.90;99.90
10263;DHT22;5177;50.068;8.156;2023-04-24T10:27:47;11.90;99.90
10263;DHT22;5177;50.068;8.156;2023-04-24T10:30:13;11.70;99.90
10263;DHT22;5177;50.068;8.156;2023-04-24T10:32:39;11.50;99.90
10263;DHT22;5177;50.068;8.156;2023-04-24T10:35:06;11.20;99.90
10263;DHT22;5177;50.068;8.156;2023-04-24T10:37:35;11.30;99.90
10263;DHT22;5177;50.068;8.156;2023-04-24T10:40:01;11.50;99.90
10263;DHT22;5177;50.068;8.156;2023-04-24T10:42:27;11.50;99.90
10263;DHT22;5177;50.068;8.156;2023-04-24T10:44:53;11.50;99.90
10263;DHT22;5177;50.068;8.156;2023-04-24T10:47:19;11.90;99.90
10263;DHT22;5177;50.068;8.156;2023-04-24T10:49:45;12.30;99.90
10263;DHT22;5177;50.068;8.156;2023-04-24T10:52:10;12.50;99.90
10263;DHT22;5177;50.068;8.156;2023-04-24T10:59:43;12.40;99.90
10263;DHT22;5177;50.068;8.156;2023-04-24T11:02:09;12.30;99.90
10263;DHT22;5177;50.068;8.156;2023-04-24T11:04:35;12.40;99.90
10263;DHT22;5177;50.068;8.156;2023-04-24T11:07:04;12.40;99.90
10263;DHT22;5177;50.068;8.156;2023-04-24T11:09:30;12.20;99.90
10263;DHT22;5177;50.068;8.156;2023-04-24T11:12:03;12.00;99.90
10263;DHT22;5177;50.068;8.156;2023-04-24T11:15:01;11.90;99.90
10263;DHT22;5177;50.068;8.156;2023-04-24T11:17:33;12.00;99.90
10263;DHT22;5177;50.068;8.156;2023-04-24T11:22:30;12.60;99.90
10263;DHT22;5177;50.068;8.156;2023-04-24T11:24:58;12.80;99.90
10263;DHT22;5177;50.068;8.156;2023-04-24T11:27:25;12.60;99.90
10263;DHT22;5177;50.068;8.156;2023-04-24T11:32:25;13.10;99.90
10263;DHT22;5177;50.068;8.156;2023-04-24T11:34:52;13.40;99.90
10263;DHT22;5177;50.068;8.156;2023-04-24T11:37:17;13.90;99.90
10263;DHT22;5177;50.068;8.156;2023-04-24T11:39:43;14.20;99.90
10263;DHT22;5177;50.068;8.156;2023-04-24T11:42:09;14.70;99.90
10263;DHT22;5177;50.068;8.156;2023-04-24T11:44:35;14.20;99.90
10263;DHT22;5177;50.068;8.156;2023-04-24T11:47:05;14.40;99.90
10263;DHT22;5177;50.068;8.156;2023-04-24T11:49:32;14.70;99.90
10263;DHT22;5177;50.068;8.156;2023-04-24T11:51:57;14.90;99.90
10263;DHT22;5177;50.068;8.156;2023-04-24T11:54:25;15.00;99.90
10263;DHT22;5177;50.068;8.156;2023-04-24T11:56:50;14.50;99.90
10263;DHT22;5177;50.068;8.156;2023-04-24T11:59:16;14.00;99.90
10263;DHT22;5177;50.068;8.156;2023-04-24T12:01:45;14.00;99.90
10263;DHT22;5177;50.068;8.156;2023-04-24T12:04:11;13.70;99.90
10263;DHT22;5177;50.068;8.156;2023-04-24T12:06:36;13.40;99.90
10263;DHT22;5177;50.068;8.156;2023-04-24T12:09:02;13.20;99.90
10263;DHT22;5177;50.068;8.156;2023-04-24T12:11:27;13.00;99.90
10263;DHT22;5177;50.068;8.156;2023-04-24T12:13:54;13.00;99.90
10263;DHT22;5177;50.068;8.156;2023-04-24T12:16:20;13.20;99.90
10263;DHT22;5177;50.068;8.156;2023-04-24T12:18:45;13.30;99.90
10263;DHT22;5177;50.068;8.156;2023-04-24T12:21:29;13.40;99.90
10263;DHT22;5177;50.068;8.156;2023-04-24T12:23:57;13.40;99.90
10263;DHT22;5177;50.068;8.156;2023-04-24T12:26:23;13.60;99.90
10263;DHT22;5177;50.068;8.156;2023-04-24T12:28:49;13.90;99.90
10263;DHT22;5177;50.068;8.156;2023-04-24T12:31:15;14.00;99.90
10263;DHT22;5177;50.068;8.156;2023-04-24T12:33:41;14.20;99.90
10263;DHT22;5177;50.068;8.156;2023-04-24T12:36:11;14.40;99.90
10263;DHT22;5177;50.068;8.156;2023-04-24T12:38:37;14.40;99.90
10263;DHT22;5177;50.068;8.156;2023-04-24T12:41:06;14.80;99.90
10263;DHT22;5177;50.068;8.156;2023-04-24T12:43:32;15.10;99.90
10263;DHT22;5177;50.068;8.156;2023-04-24T12:45:58;15.70;99.90
10263;DHT22;5177;50.068;8.156;2023-04-24T12:48:27;15.90;99.90
10263;DHT22;5177;50.068;8.156;2023-04-24T12:50:53;16.40;99.90
10263;DHT22;5177;50.068;8.156;2023-04-24T12:53:18;16.70;99.90
10263;DHT22;5177;50.068;8.156;2023-04-24T12:55:44;16.90;99.90
10263;DHT22;5177;50.068;8.156;2023-04-24T12:58:10;16.30;99.90
10263;DHT22;5177;50.068;8.156;2023-04-24T13:00:35;15.90;99.90
10263;DHT22;5177;50.068;8.156;2023-04-24T13:03:01;15.60;99.90
10263;DHT22;5177;50.068;8.156;2023-04-24T13:05:27;15.80;99.90
10263;DHT22;5177;50.068;8.156;2023-04-24T13:07:53;16.20;99.90
10263;DHT22;5177;50.068;8.156;2023-04-24T13:10:18;16.30;99.90
10263;DHT22;5177;50.068;8.156;2023-04-24T13:12:44;16.40;99.90
10263;DHT22;5177;50.068;8.156;2023-04-24T13:15:11;16.30;99.90
10263;DHT22;5177;50.068;8.156;2023-04-24T13:17:37;16.10;99.90
10263;DHT22;5177;50.068;8.156;2023-04-24T13:20:02;15.60;99.90
10263;DHT22;5177;50.068;8.156;2023-04-24T13:22:28;15.00;99.90
10263;DHT22;5177;50.068;8.156;2023-04-24T13:24:53;14.70;99.90
10263;DHT22;5177;50.068;8.156;2023-04-24T13:27:19;14.00;99.90
10263;DHT22;5177;50.068;8.156;2023-04-24T13:29:45;13.30;99.90
10263;DHT22;5177;50.068;8.156;2023-04-24T13:32:11;13.40;99.90
10263;DHT22;5177;50.068;8.156;2023-04-24T13:34:36;13.20;99.90
10263;DHT22;5177;50.068;8.156;2023-04-24T13:37:02;13.40;99.90
10263;DHT22;5177;50.068;8.156;2023-04-24T13:39:28;13.60;99.90
10263;DHT22;5177;50.068;8.156;2023-04-24T13:41:54;14.30;99.90
10263;DHT22;5177;50.068;8.156;2023-04-24T13:44:20;15.10;99.90
10263;DHT22;5177;50.068;8.156;2023-04-24T13:46:49;15.90;99.90
10263;DHT22;5177;50.068;8.156;2023-04-24T13:49:15;15.90;99.90
10263;DHT22;5177;50.068;8.156;2023-04-24T13:51:41;15.70;99.90
10263;DHT22;5177;50.068;8.156;2023-04-24T13:54:07;15.50;99.90
10263;DHT22;5177;50.068;8.156;2023-04-24T13:56:32;15.90;99.90
10263;DHT22;5177;50.068;8.156;2023-04-24T13:58:58;16.50;99.90
10263;DHT22;5177;50.068;8.156;2023-04-24T14:01:24;16.30;99.90
10263;DHT22;5177;50.068;8.156;2023-04-24T14:03:50;16.00;99.90
10263;DHT22;5177;50.068;8.156;2023-04-24T14:06:17;15.80;99.90
10263;DHT22;5177;50.068;8.156;2023-04-24T14:08:42;15.50;99.90
10263;DHT22;5177;50.068;8.156;2023-04-24T14:11:08;15.70;99.90
10263;DHT22;5177;50.068;8.156;2023-04-24T14:13:33;15.80;99.90
10263;DHT22;5177;50.068;8.156;2023-04-24T14:15:59;15.90;99.90
10263;DHT22;5177;50.068;8.156;2023-04-24T14:18:25;15.90;99.90
10263;DHT22;5177;50.068;8.156;2023-04-24T14:20:52;16.10;99.90
10263;DHT22;5177;50.068;8.156;2023-04-24T14:23:18;16.20;99.90
10263;DHT22;5177;50.068;8.156;2023-04-24T14:25:43;16.20;99.90
10263;DHT22;5177;50.068;8.156;2023-04-24T14:28:09;15.70;99.90
10263;DHT22;5177;50.068;8.156;2023-04-24T14:30:34;15.50;99.90
10263;DHT22;5177;50.068;8.156;2023-04-24T14:33:03;15.20;99.90
10263;DHT22;5177;50.068;8.156;2023-04-24T14:35:29;14.90;99.90
10263;DHT22;5177;50.068;8.156;2023-04-24T14:37:56;14.90;99.90
10263;DHT22;5177;50.068;8.156;2023-04-24T14:40:22;15.30;99.90
10263;DHT22;5177;50.068;8.156;2023-04-24T14:42:47;15.90;99.90
10263;DHT22;5177;50.068;8.156;2023-04-24T14:45:13;16.10;99.90
10263;DHT22;5177;50.068;8.156;2023-04-24T14:47:38;16.30;99.90
10263;DHT22;5177;50.068;8.156;2023-04-24T14:50:04;16.20;99.90
10263;DHT22;5177;50.068;8.156;2023-04-24T14:52:30;15.60;99.90
10263;DHT22;5177;50.068;8.156;2023-04-24T14:54:55;15.50;99.90
10263;DHT22;5177;50.068;8.156;2023-04-24T14:57:21;16.50;99.90
10263;DHT22;5177;50.068;8.156;2023-04-24T14:59:47;17.10;99.90
10263;DHT22;5177;50.068;8.156;2023-04-24T15:02:13;16.50;99.90
10263;DHT22;5177;50.068;8.156;2023-04-24T15:04:38;16.60;99.90
10263;DHT22;5177;50.068;8.156;2023-04-24T15:07:03;16.30;99.90
10263;DHT22;5177;50.068;8.156;2023-04-24T15:09:29;15.90;99.90
10263;DHT22;5177;50.068;8.156;2023-04-24T15:11:57;15.70;99.90
10263;DHT22;5177;50.068;8.156;2023-04-24T15:14:22;15.40;99.90
10263;DHT22;5177;50.068;8.156;2023-04-24T15:16:48;15.50;99.90
10263;DHT22;5177;50.068;8.156;2023-04-24T15:19:13;15.70;99.90
10263;DHT22;5177;50.068;8.156;2023-04-24T15:21:39;15.60;99.90
10263;DHT22;5177;50.068;8.156;2023-04-24T15:24:06;15.40;99.90
10263;DHT22;5177;50.068;8.156;2023-04-24T15:26:32;15.30;99.90
10263;DHT22;5177;50.068;8.156;2023-04-24T15:28:57;15.00;99.90
10263;DHT22;5177;50.068;8.156;2023-04-24T15:31:23;15.00;99.90
10263;DHT22;5177;50.068;8.156;2023-04-24T15:33:51;15.00;99.90
10263;DHT22;5177;50.068;8.156;2023-04-24T15:36:17;14.60;99.90
10263;DHT22;5177;50.068;8.156;2023-04-24T15:38:43;14.60;99.90
10263;DHT22;5177;50.068;8.156;2023-04-24T15:41:09;14.60;99.90
10263;DHT22;5177;50.068;8.156;2023-04-24T15:43:34;14.70;99.90
10263;DHT22;5177;50.068;8.156;2023-04-24T15:46:00;14.70;99.90
10263;DHT22;5177;50.068;8.156;2023-04-24T15:48:29;14.80;99.90
10263;DHT22;5177;50.068;8.156;2023-04-24T15:50:55;14.50;99.90
10263;DHT22;5177;50.068;8.156;2023-04-24T15:53:21;14.50;99.90